sensor_id;sensor_type;location;lat;lon;timestamp;P1;durP1;ratioP1;P2;durP2;ratioP2
68256;SDS011;55069;51.568;4.656;2023-11-21T00:00:17;21.10;;;12.07;;
68256;SDS011;55069;51.568;4.656;2023-11-21T00:02:43;19.83;;;12.67;;
68256;SDS011;55069;51.568;4.656;2023-11-21T00:05:11;27.10;;;12.57;;
68256;SDS011;55069;51.568;4.656;2023-11-21T00:07:39;26.40;;;12.90;;
68256;SDS011;55069;51.568;4.656;2023-11-21T00:10:05;29.67;;;12.93;;
68256;SDS011;55069;51.568;4.656;2023-11-21T00:12:32;25.85;;;13.13;;
68256;SDS011;55069;51.568;4.656;2023-11-21T00:14:58;28.60;;;13.00;;
68256;SDS011;55069;51.568;4.656;2023-11-21T00:17:24;22.88;;;12.75;;
68256;SDS011;55069;51.568;4.656;2023-11-21T00:19:49;23.83;;;12.27;;
68256;SDS011;55069;51.568;4.656;2023-11-21T00:22:17;26.08;;;13.38;;
68256;SDS011;55069;51.568;4.656;2023-11-21T00:24:43;30.23;;;14.02;;
68256;SDS011;55069;51.568;4.656;2023-11-21T00:27:09;26.70;;;13.52;;
68256;SDS011;55069;51.568;4.656;2023-11-21T00:29:35;23.85;;;12.30;;
68256;SDS011;55069;51.568;4.656;2023-11-21T00:32:00;22.63;;;12.90;;
68256;SDS011;55069;51.568;4.656;2023-11-21T00:34:26;29.67;;;13.90;;
68256;SDS011;55069;51.568;4.656;2023-11-21T00:36:52;26.52;;;12.65;;
68256;SDS011;55069;51.568;4.656;2023-11-21T00:39:17;26.43;;;13.67;;
68256;SDS011;55069;51.568;4.656;2023-11-21T00:41:43;25.02;;;12.80;;
68256;SDS011;55069;51.568;4.656;2023-11-21T00:44:10;23.40;;;12.77;;
68256;SDS011;55069;51.568;4.656;2023-11-21T00:46:36;21.15;;;12.40;;
68256;SDS011;55069;51.568;4.656;2023-11-21T00:49:02;29.67;;;13.13;;
68256;SDS011;55069;51.568;4.656;2023-11-21T00:51:29;20.13;;;12.27;;
68256;SDS011;55069;51.568;4.656;2023-11-21T00:53:55;30.35;;;11.82;;
68256;SDS011;55069;51.568;4.656;2023-11-21T00:56:20;29.93;;;11.80;;
68256;SDS011;55069;51.568;4.656;2023-11-21T00:58:46;22.42;;;11.93;;
68256;SDS011;55069;51.568;4.656;2023-11-21T01:01:15;22.58;;;12.05;;
68256;SDS011;55069;51.568;4.656;2023-11-21T01:03:41;29.77;;;13.65;;
68256;SDS011;55069;51.568;4.656;2023-11-21T01:06:07;28.20;;;12.20;;
68256;SDS011;55069;51.568;4.656;2023-11-21T01:08:34;19.20;;;11.07;;
68256;SDS011;55069;51.568;4.656;2023-11-21T01:10:59;23.20;;;12.02;;
68256;SDS011;55069;51.568;4.656;2023-11-21T01:13:26;19.55;;;11.70;;
68256;SDS011;55069;51.568;4.656;2023-11-21T01:15:55;20.83;;;11.68;;
68256;SDS011;55069;51.568;4.656;2023-11-21T01:18:21;19.37;;;11.87;;
68256;SDS011;55069;51.568;4.656;2023-11-21T01:20:46;21.17;;;12.13;;
68256;SDS011;55069;51.568;4.656;2023-11-21T01:23:12;21.97;;;11.33;;
68256;SDS011;55069;51.568;4.656;2023-11-21T01:25:38;22.55;;;11.52;;
68256;SDS011;55069;51.568;4.656;2023-11-21T01:28:04;21.70;;;11.68;;
68256;SDS011;55069;51.568;4.656;2023-11-21T01:30:30;21.00;;;12.03;;
68256;SDS011;55069;51.568;4.656;2023-11-21T01:32:57;17.92;;;11.55;;
68256;SDS011;55069;51.568;4.656;2023-11-21T01:35:23;19.33;;;11.47;;
68256;SDS011;55069;51.568;4.656;2023-11-21T01:37:48;22.45;;;11.20;;
68256;SDS011;55069;51.568;4.656;2023-11-21T01:40:14;17.43;;;11.37;;
68256;SDS011;55069;51.568;4.656;2023-11-21T01:42:40;15.97;;;10.33;;
68256;SDS011;55069;51.568;4.656;2023-11-21T01:45:09;15.45;;;10.30;;
68256;SDS011;55069;51.568;4.656;2023-11-21T01:47:35;17.15;;;11.07;;
68256;SDS011;55069;51.568;4.656;2023-11-21T01:50:02;19.63;;;10.95;;
68256;SDS011;55069;51.568;4.656;2023-11-21T01:52:29;16.43;;;10.43;;
68256;SDS011;55069;51.568;4.656;2023-11-21T01:54:55;17.73;;;10.85;;
68256;SDS011;55069;51.568;4.656;2023-11-21T01:57:23;18.65;;;10.90;;
68256;SDS011;55069;51.568;4.656;2023-11-21T01:59:49;21.67;;;11.37;;
68256;SDS011;55069;51.568;4.656;2023-11-21T02:02:16;21.88;;;11.07;;
68256;SDS011;55069;51.568;4.656;2023-11-21T02:04:41;16.38;;;10.13;;
68256;SDS011;55069;51.568;4.656;2023-11-21T02:07:07;17.03;;;10.13;;
68256;SDS011;55069;51.568;4.656;2023-11-21T02:09:33;18.02;;;11.13;;
68256;SDS011;55069;51.568;4.656;2023-11-21T02:11:59;18.45;;;11.20;;
68256;SDS011;55069;51.568;4.656;2023-11-21T02:14:26;20.52;;;10.98;;
68256;SDS011;55069;51.568;4.656;2023-11-21T02:16:53;19.88;;;10.93;;
68256;SDS011;55069;51.568;4.656;2023-11-21T02:19:20;19.58;;;11.95;;
68256;SDS011;55069;51.568;4.656;2023-11-21T02:21:51;18.67;;;11.40;;
68256;SDS011;55069;51.568;4.656;2023-11-21T02:24:19;21.40;;;12.32;;
68256;SDS011;55069;51.568;4.656;2023-11-21T02:26:45;23.73;;;12.88;;
68256;SDS011;55069;51.568;4.656;2023-11-21T02:29:11;21.38;;;12.50;;
68256;SDS011;55069;51.568;4.656;2023-11-21T02:31:39;24.67;;;12.67;;
68256;SDS011;55069;51.568;4.656;2023-11-21T02:34:16;24.20;;;12.27;;
68256;SDS011;55069;51.568;4.656;2023-11-21T02:36:43;32.47;;;13.43;;
68256;SDS011;55069;51.568;4.656;2023-11-21T02:39:11;20.73;;;12.02;;
68256;SDS011;55069;51.568;4.656;2023-11-21T02:41:37;22.80;;;11.93;;
68256;SDS011;55069;51.568;4.656;2023-11-21T02:44:03;23.63;;;13.00;;
68256;SDS011;55069;51.568;4.656;2023-11-21T02:46:31;22.88;;;13.07;;
68256;SDS011;55069;51.568;4.656;2023-11-21T02:49:05;24.88;;;14.23;;
68256;SDS011;55069;51.568;4.656;2023-11-21T02:51:35;26.48;;;13.40;;
68256;SDS011;55069;51.568;4.656;2023-11-21T02:54:03;24.13;;;12.80;;
68256;SDS011;55069;51.568;4.656;2023-11-21T02:56:33;25.52;;;13.38;;
68256;SDS011;55069;51.568;4.656;2023-11-21T02:58:59;25.25;;;13.10;;
68256;SDS011;55069;51.568;4.656;2023-11-21T03:01:25;22.40;;;12.60;;
68256;SDS011;55069;51.568;4.656;2023-11-21T03:03:51;24.25;;;13.52;;
68256;SDS011;55069;51.568;4.656;2023-11-21T03:06:18;30.20;;;14.38;;
68256;SDS011;55069;51.568;4.656;2023-11-21T03:08:44;27.15;;;13.35;;
68256;SDS011;55069;51.568;4.656;2023-11-21T03:11:09;27.23;;;14.73;;
68256;SDS011;55069;51.568;4.656;2023-11-21T03:13:35;27.03;;;13.50;;
68256;SDS011;55069;51.568;4.656;2023-11-21T03:16:00;22.43;;;12.70;;
68256;SDS011;55069;51.568;4.656;2023-11-21T03:18:26;23.98;;;12.85;;
68256;SDS011;55069;51.568;4.656;2023-11-21T03:20:54;26.43;;;13.70;;
68256;SDS011;55069;51.568;4.656;2023-11-21T03:23:20;24.52;;;12.77;;
68256;SDS011;55069;51.568;4.656;2023-11-21T03:25:45;27.40;;;12.47;;
68256;SDS011;55069;51.568;4.656;2023-11-21T03:28:11;26.17;;;12.43;;
68256;SDS011;55069;51.568;4.656;2023-11-21T03:30:36;37.40;;;13.73;;
68256;SDS011;55069;51.568;4.656;2023-11-21T03:33:02;32.80;;;13.27;;
68256;SDS011;55069;51.568;4.656;2023-11-21T03:35:28;30.08;;;12.82;;
68256;SDS011;55069;51.568;4.656;2023-11-21T03:37:54;27.63;;;12.50;;
68256;SDS011;55069;51.568;4.656;2023-11-21T03:40:19;24.83;;;13.03;;
68256;SDS011;55069;51.568;4.656;2023-11-21T03:42:46;33.67;;;12.57;;
68256;SDS011;55069;51.568;4.656;2023-11-21T03:45:12;35.17;;;13.20;;
68256;SDS011;55069;51.568;4.656;2023-11-21T03:47:38;24.60;;;12.53;;
68256;SDS011;55069;51.568;4.656;2023-11-21T03:50:04;32.55;;;11.88;;
68256;SDS011;55069;51.568;4.656;2023-11-21T03:52:30;36.38;;;12.32;;
68256;SDS011;55069;51.568;4.656;2023-11-21T03:54:56;33.03;;;12.87;;
68256;SDS011;55069;51.568;4.656;2023-11-21T03:57:21;37.60;;;13.40;;
68256;SDS011;55069;51.568;4.656;2023-11-21T03:59:47;31.13;;;14.30;;
68256;SDS011;55069;51.568;4.656;2023-11-21T04:02:12;35.38;;;13.80;;
68256;SDS011;55069;51.568;4.656;2023-11-21T04:04:38;34.80;;;13.57;;
68256;SDS011;55069;51.568;4.656;2023-11-21T04:07:04;35.22;;;14.30;;
68256;SDS011;55069;51.568;4.656;2023-11-21T04:09:30;39.47;;;15.40;;
68256;SDS011;55069;51.568;4.656;2023-11-21T04:11:55;38.03;;;14.65;;
68256;SDS011;55069;51.568;4.656;2023-11-21T04:14:21;43.97;;;14.60;;
68256;SDS011;55069;51.568;4.656;2023-11-21T04:16:47;38.20;;;15.75;;
68256;SDS011;55069;51.568;4.656;2023-11-21T04:19:13;42.45;;;15.10;;
68256;SDS011;55069;51.568;4.656;2023-11-21T04:21:42;36.53;;;15.55;;
68256;SDS011;55069;51.568;4.656;2023-11-21T04:24:08;40.53;;;14.90;;
68256;SDS011;55069;51.568;4.656;2023-11-21T04:26:34;43.08;;;14.70;;
68256;SDS011;55069;51.568;4.656;2023-11-21T04:28:59;38.67;;;14.90;;
68256;SDS011;55069;51.568;4.656;2023-11-21T04:31:25;39.50;;;14.43;;
68256;SDS011;55069;51.568;4.656;2023-11-21T04:33:50;39.33;;;15.23;;
68256;SDS011;55069;51.568;4.656;2023-11-21T04:36:16;35.83;;;13.70;;
68256;SDS011;55069;51.568;4.656;2023-11-21T04:38:42;36.33;;;15.00;;
68256;SDS011;55069;51.568;4.656;2023-11-21T04:41:07;39.10;;;13.63;;
68256;SDS011;55069;51.568;4.656;2023-11-21T04:43:33;41.67;;;13.68;;
68256;SDS011;55069;51.568;4.656;2023-11-21T04:45:59;29.40;;;13.50;;
68256;SDS011;55069;51.568;4.656;2023-11-21T04:48:25;37.42;;;14.35;;
68256;SDS011;55069;51.568;4.656;2023-11-21T04:50:50;29.03;;;12.80;;
68256;SDS011;55069;51.568;4.656;2023-11-21T04:53:16;33.67;;;13.38;;
68256;SDS011;55069;51.568;4.656;2023-11-21T04:55:42;32.43;;;13.00;;
68256;SDS011;55069;51.568;4.656;2023-11-21T04:58:09;39.67;;;13.88;;
68256;SDS011;55069;51.568;4.656;2023-11-21T05:00:36;32.80;;;12.77;;
68256;SDS011;55069;51.568;4.656;2023-11-21T05:03:02;31.77;;;13.43;;
68256;SDS011;55069;51.568;4.656;2023-11-21T05:05:28;29.75;;;13.52;;
68256;SDS011;55069;51.568;4.656;2023-11-21T05:07:55;33.65;;;12.88;;
68256;SDS011;55069;51.568;4.656;2023-11-21T05:10:20;38.40;;;13.93;;
68256;SDS011;55069;51.568;4.656;2023-11-21T05:12:47;28.65;;;12.48;;
68256;SDS011;55069;51.568;4.656;2023-11-21T05:15:15;34.30;;;12.98;;
68256;SDS011;55069;51.568;4.656;2023-11-21T05:17:41;42.37;;;13.53;;
68256;SDS011;55069;51.568;4.656;2023-11-21T05:20:07;37.97;;;12.32;;
68256;SDS011;55069;51.568;4.656;2023-11-21T05:22:35;26.80;;;11.80;;
68256;SDS011;55069;51.568;4.656;2023-11-21T05:25:01;34.28;;;12.57;;
68256;SDS011;55069;51.568;4.656;2023-11-21T05:27:29;29.15;;;12.25;;
68256;SDS011;55069;51.568;4.656;2023-11-21T05:29:56;22.23;;;10.97;;
68256;SDS011;55069;51.568;4.656;2023-11-21T05:32:23;29.95;;;12.32;;
68256;SDS011;55069;51.568;4.656;2023-11-21T05:34:49;31.73;;;12.60;;
68256;SDS011;55069;51.568;4.656;2023-11-21T05:37:14;25.23;;;11.97;;
68256;SDS011;55069;51.568;4.656;2023-11-21T05:39:40;25.40;;;12.40;;
68256;SDS011;55069;51.568;4.656;2023-11-21T05:42:05;23.17;;;11.98;;
68256;SDS011;55069;51.568;4.656;2023-11-21T05:44:31;32.93;;;12.93;;
68256;SDS011;55069;51.568;4.656;2023-11-21T05:46:57;29.70;;;12.60;;
68256;SDS011;55069;51.568;4.656;2023-11-21T05:49:24;41.55;;;13.75;;
68256;SDS011;55069;51.568;4.656;2023-11-21T05:51:52;42.63;;;13.70;;
68256;SDS011;55069;51.568;4.656;2023-11-21T05:54:19;43.83;;;14.43;;
68256;SDS011;55069;51.568;4.656;2023-11-21T05:56:45;38.03;;;14.35;;
68256;SDS011;55069;51.568;4.656;2023-11-21T05:59:10;35.47;;;13.13;;
68256;SDS011;55069;51.568;4.656;2023-11-21T06:01:36;35.43;;;13.17;;
68256;SDS011;55069;51.568;4.656;2023-11-21T06:04:03;29.90;;;11.65;;
68256;SDS011;55069;51.568;4.656;2023-11-21T06:06:29;40.47;;;13.40;;
68256;SDS011;55069;51.568;4.656;2023-11-21T06:08:56;40.07;;;13.20;;
68256;SDS011;55069;51.568;4.656;2023-11-21T06:11:22;41.00;;;13.50;;
68256;SDS011;55069;51.568;4.656;2023-11-21T06:13:47;46.33;;;13.60;;
68256;SDS011;55069;51.568;4.656;2023-11-21T06:16:13;39.65;;;12.48;;
68256;SDS011;55069;51.568;4.656;2023-11-21T06:18:41;42.27;;;13.03;;
68256;SDS011;55069;51.568;4.656;2023-11-21T06:21:09;41.03;;;12.52;;
68256;SDS011;55069;51.568;4.656;2023-11-21T06:23:35;43.40;;;12.50;;
68256;SDS011;55069;51.568;4.656;2023-11-21T06:26:00;46.77;;;13.10;;
68256;SDS011;55069;51.568;4.656;2023-11-21T06:28:26;48.70;;;13.55;;
68256;SDS011;55069;51.568;4.656;2023-11-21T06:30:51;48.42;;;13.30;;
68256;SDS011;55069;51.568;4.656;2023-11-21T06:33:18;52.90;;;13.95;;
68256;SDS011;55069;51.568;4.656;2023-11-21T06:35:44;53.13;;;13.57;;
68256;SDS011;55069;51.568;4.656;2023-11-21T06:38:10;48.13;;;14.60;;
68256;SDS011;55069;51.568;4.656;2023-11-21T06:40:35;46.40;;;13.20;;
68256;SDS011;55069;51.568;4.656;2023-11-21T06:43:01;56.13;;;13.32;;
68256;SDS011;55069;51.568;4.656;2023-11-21T06:45:27;43.43;;;13.40;;
68256;SDS011;55069;51.568;4.656;2023-11-21T06:47:52;43.88;;;13.25;;
68256;SDS011;55069;51.568;4.656;2023-11-21T06:50:18;43.33;;;13.03;;
68256;SDS011;55069;51.568;4.656;2023-11-21T06:52:44;49.97;;;13.45;;
68256;SDS011;55069;51.568;4.656;2023-11-21T06:55:09;46.45;;;12.40;;
68256;SDS011;55069;51.568;4.656;2023-11-21T06:57:36;43.80;;;12.93;;
68256;SDS011;55069;51.568;4.656;2023-11-21T07:00:02;42.90;;;12.07;;
68256;SDS011;55069;51.568;4.656;2023-11-21T07:02:28;34.17;;;11.05;;
68256;SDS011;55069;51.568;4.656;2023-11-21T07:04:53;39.63;;;11.32;;
68256;SDS011;55069;51.568;4.656;2023-11-21T07:07:19;38.47;;;11.13;;
68256;SDS011;55069;51.568;4.656;2023-11-21T07:09:45;47.13;;;11.87;;
68256;SDS011;55069;51.568;4.656;2023-11-21T07:12:10;42.92;;;11.57;;
68256;SDS011;55069;51.568;4.656;2023-11-21T07:14:36;39.70;;;11.50;;
68256;SDS011;55069;51.568;4.656;2023-11-21T07:17:04;41.70;;;13.57;;
68256;SDS011;55069;51.568;4.656;2023-11-21T07:19:30;52.13;;;13.03;;
68256;SDS011;55069;51.568;4.656;2023-11-21T07:21:55;56.90;;;14.55;;
68256;SDS011;55069;51.568;4.656;2023-11-21T07:24:21;57.13;;;15.10;;
68256;SDS011;55069;51.568;4.656;2023-11-21T07:26:48;77.55;;;15.85;;
68256;SDS011;55069;51.568;4.656;2023-11-21T07:29:13;72.90;;;16.00;;
68256;SDS011;55069;51.568;4.656;2023-11-21T07:31:39;74.55;;;15.30;;
68256;SDS011;55069;51.568;4.656;2023-11-21T07:34:06;108.20;;;15.65;;
68256;SDS011;55069;51.568;4.656;2023-11-21T07:36:33;186.25;;;16.95;;
68256;SDS011;55069;51.568;4.656;2023-11-21T07:38:58;328.90;;;20.90;;
68256;SDS011;55069;51.568;4.656;2023-11-21T07:41:24;271.43;;;16.70;;
68256;SDS011;55069;51.568;4.656;2023-11-21T07:43:49;326.35;;;18.52;;
68256;SDS011;55069;51.568;4.656;2023-11-21T07:46:15;317.50;;;17.58;;
68256;SDS011;55069;51.568;4.656;2023-11-21T07:48:41;327.90;;;17.87;;
68256;SDS011;55069;51.568;4.656;2023-11-21T07:51:08;309.55;;;16.00;;
68256;SDS011;55069;51.568;4.656;2023-11-21T07:53:35;274.60;;;16.15;;
68256;SDS011;55069;51.568;4.656;2023-11-21T07:56:04;285.13;;;15.27;;
68256;SDS011;55069;51.568;4.656;2023-11-21T07:58:30;301.30;;;15.68;;
68256;SDS011;55069;51.568;4.656;2023-11-21T08:00:58;255.50;;;14.10;;
68256;SDS011;55069;51.568;4.656;2023-11-21T08:03:25;276.17;;;13.43;;
68256;SDS011;55069;51.568;4.656;2023-11-21T08:05:52;193.98;;;11.77;;
68256;SDS011;55069;51.568;4.656;2023-11-21T08:08:17;193.57;;;12.10;;
68256;SDS011;55069;51.568;4.656;2023-11-21T08:10:44;174.23;;;12.57;;
68256;SDS011;55069;51.568;4.656;2023-11-21T08:13:13;142.20;;;11.55;;
68256;SDS011;55069;51.568;4.656;2023-11-21T08:15:41;129.65;;;12.55;;
68256;SDS011;55069;51.568;4.656;2023-11-21T08:18:11;182.93;;;12.48;;
68256;SDS011;55069;51.568;4.656;2023-11-21T08:20:38;167.57;;;12.97;;
68256;SDS011;55069;51.568;4.656;2023-11-21T08:23:05;162.85;;;13.48;;
68256;SDS011;55069;51.568;4.656;2023-11-21T08:25:31;114.75;;;12.65;;
68256;SDS011;55069;51.568;4.656;2023-11-21T08:27:57;114.78;;;11.52;;
68256;SDS011;55069;51.568;4.656;2023-11-21T08:30:22;93.37;;;12.37;;
68256;SDS011;55069;51.568;4.656;2023-11-21T08:32:49;77.53;;;12.32;;
68256;SDS011;55069;51.568;4.656;2023-11-21T08:35:18;76.75;;;11.02;;
68256;SDS011;55069;51.568;4.656;2023-11-21T08:37:44;68.97;;;12.40;;
68256;SDS011;55069;51.568;4.656;2023-11-21T08:40:10;61.03;;;11.75;;
68256;SDS011;55069;51.568;4.656;2023-11-21T08:42:37;62.90;;;12.13;;
68256;SDS011;55069;51.568;4.656;2023-11-21T08:45:03;49.38;;;10.73;;
68256;SDS011;55069;51.568;4.656;2023-11-21T08:47:31;46.07;;;11.30;;
68256;SDS011;55069;51.568;4.656;2023-11-21T08:49:56;44.17;;;11.13;;
68256;SDS011;55069;51.568;4.656;2023-11-21T08:52:23;36.87;;;10.27;;
68256;SDS011;55069;51.568;4.656;2023-11-21T08:54:49;38.03;;;9.90;;
68256;SDS011;55069;51.568;4.656;2023-11-21T08:57:24;36.63;;;10.33;;
68256;SDS011;55069;51.568;4.656;2023-11-21T08:59:50;35.53;;;9.73;;
68256;SDS011;55069;51.568;4.656;2023-11-21T09:02:21;29.40;;;9.18;;
68256;SDS011;55069;51.568;4.656;2023-11-21T09:04:48;35.08;;;10.35;;
68256;SDS011;55069;51.568;4.656;2023-11-21T09:07:14;31.67;;;9.97;;
68256;SDS011;55069;51.568;4.656;2023-11-21T09:09:40;31.63;;;10.02;;
68256;SDS011;55069;51.568;4.656;2023-11-21T09:12:05;28.87;;;10.10;;
68256;SDS011;55069;51.568;4.656;2023-11-21T09:14:31;24.55;;;9.68;;
68256;SDS011;55069;51.568;4.656;2023-11-21T09:16:57;18.50;;;8.43;;
68256;SDS011;55069;51.568;4.656;2023-11-21T09:19:22;24.43;;;9.23;;
68256;SDS011;55069;51.568;4.656;2023-11-21T09:21:47;23.17;;;9.18;;
68256;SDS011;55069;51.568;4.656;2023-11-21T09:24:14;20.20;;;8.18;;
68256;SDS011;55069;51.568;4.656;2023-11-21T09:26:39;19.02;;;9.20;;
68256;SDS011;55069;51.568;4.656;2023-11-21T09:29:05;18.95;;;7.60;;
68256;SDS011;55069;51.568;4.656;2023-11-21T09:31:30;16.67;;;6.77;;
68256;SDS011;55069;51.568;4.656;2023-11-21T09:33:56;18.70;;;8.37;;
68256;SDS011;55069;51.568;4.656;2023-11-21T09:36:22;21.60;;;9.90;;
68256;SDS011;55069;51.568;4.656;2023-11-21T09:38:52;26.38;;;11.77;;
68256;SDS011;55069;51.568;4.656;2023-11-21T09:41:23;20.67;;;9.98;;
68256;SDS011;55069;51.568;4.656;2023-11-21T09:44:02;25.10;;;11.67;;
68256;SDS011;55069;51.568;4.656;2023-11-21T09:46:32;20.85;;;15.18;;
68256;SDS011;55069;51.568;4.656;2023-11-21T09:48:58;27.65;;;12.80;;
68256;SDS011;55069;51.568;4.656;2023-11-21T09:51:26;27.48;;;11.25;;
68256;SDS011;55069;51.568;4.656;2023-11-21T09:53:55;28.05;;;11.00;;
68256;SDS011;55069;51.568;4.656;2023-11-21T09:56:24;23.50;;;10.83;;
68256;SDS011;55069;51.568;4.656;2023-11-21T09:58:52;20.48;;;8.05;;
68256;SDS011;55069;51.568;4.656;2023-11-21T10:01:19;23.15;;;10.52;;
68256;SDS011;55069;51.568;4.656;2023-11-21T10:03:46;14.25;;;9.60;;
68256;SDS011;55069;51.568;4.656;2023-11-21T10:06:12;18.30;;;10.07;;
68256;SDS011;55069;51.568;4.656;2023-11-21T10:08:39;20.43;;;8.53;;
68256;SDS011;55069;51.568;4.656;2023-11-21T10:11:06;21.35;;;11.88;;
68256;SDS011;55069;51.568;4.656;2023-11-21T10:13:36;17.13;;;7.93;;
68256;SDS011;55069;51.568;4.656;2023-11-21T10:16:02;15.88;;;6.65;;
68256;SDS011;55069;51.568;4.656;2023-11-21T10:18:31;16.08;;;7.38;;
68256;SDS011;55069;51.568;4.656;2023-11-21T10:20:59;17.67;;;7.83;;
68256;SDS011;55069;51.568;4.656;2023-11-21T10:23:25;14.93;;;7.32;;
68256;SDS011;55069;51.568;4.656;2023-11-21T10:25:51;12.25;;;7.47;;
68256;SDS011;55069;51.568;4.656;2023-11-21T10:28:17;11.93;;;6.95;;
68256;SDS011;55069;51.568;4.656;2023-11-21T10:30:42;18.80;;;8.40;;
68256;SDS011;55069;51.568;4.656;2023-11-21T10:33:09;15.75;;;6.85;;
68256;SDS011;55069;51.568;4.656;2023-11-21T10:35:39;11.93;;;7.27;;
68256;SDS011;55069;51.568;4.656;2023-11-21T10:38:20;15.98;;;6.85;;
68256;SDS011;55069;51.568;4.656;2023-11-21T10:40:48;13.15;;;6.55;;
68256;SDS011;55069;51.568;4.656;2023-11-21T10:43:14;12.75;;;6.75;;
68256;SDS011;55069;51.568;4.656;2023-11-21T10:45:40;12.17;;;6.13;;
68256;SDS011;55069;51.568;4.656;2023-11-21T10:48:10;13.13;;;6.00;;
68256;SDS011;55069;51.568;4.656;2023-11-21T10:50:42;14.68;;;6.03;;
68256;SDS011;55069;51.568;4.656;2023-11-21T10:53:09;15.02;;;5.85;;
68256;SDS011;55069;51.568;4.656;2023-11-21T10:55:34;13.37;;;5.93;;
68256;SDS011;55069;51.568;4.656;2023-11-21T10:58:01;11.38;;;5.85;;
68256;SDS011;55069;51.568;4.656;2023-11-21T11:00:29;10.25;;;5.00;;
68256;SDS011;55069;51.568;4.656;2023-11-21T11:02:56;9.73;;;4.53;;
68256;SDS011;55069;51.568;4.656;2023-11-21T11:05:22;9.85;;;5.00;;
68256;SDS011;55069;51.568;4.656;2023-11-21T11:08:02;12.00;;;4.65;;
68256;SDS011;55069;51.568;4.656;2023-11-21T11:10:30;12.20;;;4.87;;
68256;SDS011;55069;51.568;4.656;2023-11-21T11:12:56;10.98;;;5.43;;
68256;SDS011;55069;51.568;4.656;2023-11-21T11:15:23;11.27;;;5.63;;
68256;SDS011;55069;51.568;4.656;2023-11-21T11:17:50;12.23;;;5.40;;
68256;SDS011;55069;51.568;4.656;2023-11-21T11:20:16;9.93;;;5.27;;
68256;SDS011;55069;51.568;4.656;2023-11-21T11:22:44;12.35;;;5.68;;
68256;SDS011;55069;51.568;4.656;2023-11-21T11:28:27;10.73;;;4.72;;
68256;SDS011;55069;51.568;4.656;2023-11-21T11:31:18;9.30;;;4.73;;
68256;SDS011;55069;51.568;4.656;2023-11-21T11:33:55;8.80;;;4.78;;
68256;SDS011;55069;51.568;4.656;2023-11-21T11:36:25;7.72;;;4.10;;
68256;SDS011;55069;51.568;4.656;2023-11-21T11:38:54;10.52;;;4.00;;
68256;SDS011;55069;51.568;4.656;2023-11-21T11:41:30;10.35;;;4.55;;
68256;SDS011;55069;51.568;4.656;2023-11-21T11:44:02;11.53;;;4.60;;
68256;SDS011;55069;51.568;4.656;2023-11-21T11:46:43;13.23;;;5.03;;
68256;SDS011;55069;51.568;4.656;2023-11-21T11:49:23;7.10;;;4.38;;
68256;SDS011;55069;51.568;4.656;2023-11-21T11:54:55;8.85;;;4.75;;
68256;SDS011;55069;51.568;4.656;2023-11-21T11:57:23;9.80;;;4.00;;
68256;SDS011;55069;51.568;4.656;2023-11-21T12:03:03;6.65;;;3.58;;
68256;SDS011;55069;51.568;4.656;2023-11-21T12:05:29;5.50;;;3.55;;
68256;SDS011;55069;51.568;4.656;2023-11-21T12:07:59;6.55;;;3.60;;
68256;SDS011;55069;51.568;4.656;2023-11-21T12:10:27;7.23;;;3.07;;
68256;SDS011;55069;51.568;4.656;2023-11-21T12:12:55;6.05;;;3.70;;
68256;SDS011;55069;51.568;4.656;2023-11-21T12:15:22;9.85;;;4.60;;
68256;SDS011;55069;51.568;4.656;2023-11-21T12:17:49;10.52;;;4.32;;
68256;SDS011;55069;51.568;4.656;2023-11-21T12:20:18;8.55;;;4.32;;
68256;SDS011;55069;51.568;4.656;2023-11-21T12:22:49;9.57;;;5.20;;
68256;SDS011;55069;51.568;4.656;2023-11-21T12:25:17;9.75;;;4.65;;
68256;SDS011;55069;51.568;4.656;2023-11-21T12:27:44;10.20;;;5.55;;
68256;SDS011;55069;51.568;4.656;2023-11-21T12:30:20;12.43;;;5.22;;
68256;SDS011;55069;51.568;4.656;2023-11-21T12:32:48;10.98;;;5.00;;
68256;SDS011;55069;51.568;4.656;2023-11-21T12:35:18;11.00;;;5.40;;
68256;SDS011;55069;51.568;4.656;2023-11-21T12:37:45;9.10;;;4.97;;
68256;SDS011;55069;51.568;4.656;2023-11-21T12:40:12;13.43;;;5.88;;
68256;SDS011;55069;51.568;4.656;2023-11-21T12:42:43;10.07;;;4.60;;
68256;SDS011;55069;51.568;4.656;2023-11-21T12:47:48;13.03;;;5.50;;
68256;SDS011;55069;51.568;4.656;2023-11-21T12:50:22;9.32;;;5.47;;
68256;SDS011;55069;51.568;4.656;2023-11-21T12:52:54;11.88;;;5.90;;
68256;SDS011;55069;51.568;4.656;2023-11-21T12:55:23;12.70;;;6.28;;
68256;SDS011;55069;51.568;4.656;2023-11-21T12:57:51;10.95;;;5.63;;
68256;SDS011;55069;51.568;4.656;2023-11-21T13:00:27;12.83;;;6.03;;
68256;SDS011;55069;51.568;4.656;2023-11-21T13:02:57;12.77;;;5.90;;
68256;SDS011;55069;51.568;4.656;2023-11-21T13:05:26;12.30;;;5.90;;
68256;SDS011;55069;51.568;4.656;2023-11-21T13:08:00;11.35;;;6.20;;
68256;SDS011;55069;51.568;4.656;2023-11-21T13:10:33;12.77;;;5.95;;
68256;SDS011;55069;51.568;4.656;2023-11-21T13:13:01;11.80;;;5.90;;
68256;SDS011;55069;51.568;4.656;2023-11-21T13:15:30;12.80;;;5.70;;
68256;SDS011;55069;51.568;4.656;2023-11-21T13:17:58;13.63;;;6.10;;
68256;SDS011;55069;51.568;4.656;2023-11-21T13:20:24;13.65;;;6.35;;
68256;SDS011;55069;51.568;4.656;2023-11-21T13:22:51;15.38;;;6.47;;
68256;SDS011;55069;51.568;4.656;2023-11-21T13:25:24;14.40;;;6.77;;
68256;SDS011;55069;51.568;4.656;2023-11-21T13:27:55;12.20;;;6.53;;
68256;SDS011;55069;51.568;4.656;2023-11-21T13:30:22;13.82;;;6.22;;
68256;SDS011;55069;51.568;4.656;2023-11-21T13:32:52;14.32;;;7.43;;
68256;SDS011;55069;51.568;4.656;2023-11-21T13:35:22;18.45;;;7.78;;
68256;SDS011;55069;51.568;4.656;2023-11-21T13:37:56;18.33;;;8.03;;
68256;SDS011;55069;51.568;4.656;2023-11-21T13:40:25;16.67;;;7.70;;
68256;SDS011;55069;51.568;4.656;2023-11-21T13:42:55;15.93;;;7.70;;
68256;SDS011;55069;51.568;4.656;2023-11-21T13:45:24;16.38;;;7.78;;
68256;SDS011;55069;51.568;4.656;2023-11-21T13:47:51;12.90;;;6.93;;
68256;SDS011;55069;51.568;4.656;2023-11-21T13:50:20;17.27;;;7.47;;
68256;SDS011;55069;51.568;4.656;2023-11-21T13:52:51;15.23;;;7.30;;
68256;SDS011;55069;51.568;4.656;2023-11-21T13:55:18;14.07;;;6.88;;
68256;SDS011;55069;51.568;4.656;2023-11-21T13:57:44;14.98;;;7.40;;
68256;SDS011;55069;51.568;4.656;2023-11-21T14:00:12;15.60;;;7.47;;
68256;SDS011;55069;51.568;4.656;2023-11-21T14:02:58;12.50;;;6.73;;
68256;SDS011;55069;51.568;4.656;2023-11-21T14:05:26;15.57;;;6.20;;
68256;SDS011;55069;51.568;4.656;2023-11-21T14:07:58;15.60;;;6.80;;
68256;SDS011;55069;51.568;4.656;2023-11-21T14:10:32;11.32;;;5.93;;
68256;SDS011;55069;51.568;4.656;2023-11-21T14:13:11;13.13;;;6.65;;
68256;SDS011;55069;51.568;4.656;2023-11-21T14:15:38;13.47;;;6.20;;
68256;SDS011;55069;51.568;4.656;2023-11-21T14:18:08;13.48;;;6.43;;
68256;SDS011;55069;51.568;4.656;2023-11-21T14:20:36;19.17;;;8.02;;
68256;SDS011;55069;51.568;4.656;2023-11-21T14:23:05;20.88;;;9.45;;
68256;SDS011;55069;51.568;4.656;2023-11-21T14:25:32;22.67;;;10.15;;
68256;SDS011;55069;51.568;4.656;2023-11-21T14:28:05;27.40;;;11.27;;
68256;SDS011;55069;51.568;4.656;2023-11-21T14:30:34;25.33;;;10.57;;
68256;SDS011;55069;51.568;4.656;2023-11-21T14:33:04;30.00;;;11.55;;
68256;SDS011;55069;51.568;4.656;2023-11-21T14:35:29;24.88;;;11.10;;
68256;SDS011;55069;51.568;4.656;2023-11-21T14:37:58;24.00;;;9.88;;